»·PEaware :: N630AJ KIFP-KBUR

N630AJ :: KIFP-KBUR

FLIGHT INFORMATION

Flight Status: Arrived
Operator: Privately registered:
United States
More flights under this callsign
Pilot: David J. (16724)
Aircraft: Unknown
(KODI)
More flights by this aircraft type
Origin: KIFP Laughlin/Bullhead Intl
United States
Destination: KBUR Bob Hope-Burbank
United States
More flights between these airports :: More routes between these airports
Route: + HEC LYNXX8
File this flight plan on PilotEdge
Remarks:
Altitude:
(Current/Filed)
12,000ft
Speed:
(Current/Filed)
160kts
Departed: 29-Jun-18 03:35 PM
Arrived: 29-Jun-18 05:02 PM
Distance/Time
Traveled:
196nm/1:27
Distance/Time
To Go:
Arrived

Flight Plot

Page will automatically refresh every two minutes.

Flight plan parsing failed; only flown route is shown


Map Options




Map Legend


Flown Route
Filed Route
Departure Airport
Arrival Airport
Navaid (VOR, NDB)
Fix

Horizontal Profiles

Position Reports

Time Latitude Longitude Heading Altitude Ground
Speed
29-Jun-18 15:17 35.158336 -114.556385 267 706ft 0kts
29-Jun-18 15:18 35.158336 -114.556385 267 706ft 0kts
29-Jun-18 15:19 35.158336 -114.556385 267 706ft 0kts
29-Jun-18 15:20 35.158336 -114.556385 267 706ft 0kts
29-Jun-18 15:21 35.158336 -114.556386 267 706ft 0kts
29-Jun-18 15:22 35.158336 -114.556386 267 706ft 0kts
29-Jun-18 15:23 35.158336 -114.556386 267 706ft 0kts
29-Jun-18 15:24 35.158336 -114.556386 267 706ft 0kts
29-Jun-18 15:25 35.158336 -114.556386 267 706ft 0kts
29-Jun-18 15:26 35.158336 -114.556386 267 706ft 0kts
29-Jun-18 15:27 35.158336 -114.556386 267 706ft 0kts
29-Jun-18 15:28 35.158357 -114.556572 317 706ft 6kts
29-Jun-18 15:29 35.159514 -114.557641 268 706ft 0kts
29-Jun-18 15:30 35.162209 -114.558517 355 706ft 18kts
29-Jun-18 15:31 35.165623 -114.558776 355 706ft 3kts
29-Jun-18 15:32 35.166199 -114.559155 276 706ft 0kts
29-Jun-18 15:33 35.165877 -114.560182 174 706ft 0kts
29-Jun-18 15:34 35.165878 -114.560182 174 706ft 0kts
29-Jun-18 15:35 35.150761 -114.560351 180 1256ft 103kts
29-Jun-18 15:36 35.121551 -114.561966 181 3035ft 114kts
29-Jun-18 15:37 35.091058 -114.562588 177 4788ft 113kts
29-Jun-18 15:38 35.059398 -114.560918 167 6259ft 124kts
29-Jun-18 15:39 35.023861 -114.552189 165 7275ft 141kts
29-Jun-18 15:40 34.986044 -114.541881 162 8471ft 138kts
29-Jun-18 15:41 34.949477 -114.530425 161 9673ft 134kts
29-Jun-18 15:42 34.916553 -114.538517 262 10849ft 145kts
29-Jun-18 15:43 34.920966 -114.584390 274 11984ft 135kts
29-Jun-18 15:44 34.920638 -114.625988 269 12004ft 169kts
29-Jun-18 15:45 34.917897 -114.682739 268 12000ft 171kts
29-Jun-18 15:46 34.914474 -114.740185 267 11999ft 170kts
29-Jun-18 15:47 34.911144 -114.794440 267 12001ft 167kts
29-Jun-18 15:48 34.907673 -114.850566 266 12000ft 165kts
29-Jun-18 15:49 34.904222 -114.906158 267 12069ft 159kts
29-Jun-18 15:50 34.901076 -114.955179 267 12927ft 138kts
29-Jun-18 15:51 34.898384 -114.997860 267 13578ft 140kts
29-Jun-18 15:52 34.895377 -115.045187 267 14270ft 141kts
29-Jun-18 15:53 34.892303 -115.093092 267 14963ft 143kts
29-Jun-18 15:54 34.889147 -115.141463 267 15653ft 144kts
29-Jun-18 15:55 34.885916 -115.191692 267 16003ft 160kts
29-Jun-18 15:56 34.882381 -115.247237 267 15999ft 166kts
29-Jun-18 15:57 34.878695 -115.303611 266 16000ft 168kts
29-Jun-18 15:58 34.874961 -115.360524 266 16000ft 170kts
29-Jun-18 15:59 34.871308 -115.416237 267 15999ft 170kts
29-Jun-18 16:00 34.867436 -115.473906 267 15998ft 171kts
29-Jun-18 16:01 34.863543 -115.531837 267 16000ft 172kts
29-Jun-18 16:02 34.859608 -115.590164 266 15999ft 173kts
29-Jun-18 16:03 34.855612 -115.648710 266 16000ft 174kts
29-Jun-18 16:04 34.852271 -115.697365 266 15999ft 174kts
29-Jun-18 16:05 34.848370 -115.753883 266 15999ft 174kts
29-Jun-18 16:06 34.844242 -115.812847 266 15998ft 175kts
29-Jun-18 16:07 34.840160 -115.871434 265 16000ft 174kts
29-Jun-18 16:08 34.835962 -115.930354 265 15999ft 174kts
29-Jun-18 16:09 34.831820 -115.989014 266 16027ft 173kts
29-Jun-18 16:10 34.827616 -116.047444 266 16054ft 174kts
29-Jun-18 16:11 34.823430 -116.105417 266 16054ft 174kts
29-Jun-18 16:12 34.819219 -116.163289 265 16054ft 175kts
29-Jun-18 16:13 34.814942 -116.222098 266 16054ft 174kts
29-Jun-18 16:14 34.810591 -116.281040 266 16054ft 175kts
29-Jun-18 16:15 34.806252 -116.339730 267 16054ft 174kts
29-Jun-18 16:16 34.801863 -116.398540 267 16053ft 174kts
29-Jun-18 16:17 34.797442 -116.457443 266 16054ft 175kts
29-Jun-18 16:18 34.791840 -116.516434 265 16055ft 175kts
29-Jun-18 16:19 34.786117 -116.575242 265 16054ft 175kts
29-Jun-18 16:20 34.780367 -116.633903 265 16053ft 175kts
29-Jun-18 16:21 34.774849 -116.689901 264 16053ft 175kts
29-Jun-18 16:22 34.769242 -116.746710 264 16053ft 175kts
29-Jun-18 16:23 34.763605 -116.803680 264 16053ft 174kts
29-Jun-18 16:24 34.757773 -116.861933 264 16054ft 175kts
29-Jun-18 16:25 34.751884 -116.920678 264 16054ft 175kts
29-Jun-18 16:26 34.745973 -116.979360 264 16063ft 175kts
29-Jun-18 16:27 34.740046 -117.037953 264 16063ft 175kts
29-Jun-18 16:28 34.734049 -117.096793 264 16063ft 176kts
29-Jun-18 16:29 34.728199 -117.153914 264 16062ft 175kts
29-Jun-18 16:30 34.722512 -117.209510 264 16063ft 175kts
29-Jun-18 16:31 34.716420 -117.268173 264 16063ft 175kts
29-Jun-18 16:32 34.710260 -117.328127 264 15723ft 183kts
29-Jun-18 16:33 34.703821 -117.389488 264 15224ft 182kts
29-Jun-18 16:34 34.697401 -117.450812 264 14725ft 183kts
29-Jun-18 16:35 34.690956 -117.512157 264 14226ft 183kts
29-Jun-18 16:36 34.684624 -117.572004 264 14063ft 174kts
29-Jun-18 16:37 34.678385 -117.630556 264 13864ft 182kts
29-Jun-18 16:38 34.672192 -117.689002 264 13211ft 187kts
29-Jun-18 16:39 34.665474 -117.751533 264 12514ft 188kts
29-Jun-18 16:40 34.658740 -117.814036 263 12059ft 178kts
29-Jun-18 16:41 34.653042 -117.865914 264 12064ft 146kts
29-Jun-18 16:42 34.647706 -117.914649 264 11842ft 143kts
29-Jun-18 16:43 34.642508 -117.962358 265 11218ft 145kts
29-Jun-18 16:44 34.637348 -118.009414 264 10537ft 144kts
29-Jun-18 16:45 34.632326 -118.054867 264 9873ft 143kts
29-Jun-18 16:46 34.622901 -118.101893 257 9174ft 143kts
29-Jun-18 16:47 34.612541 -118.148670 256 8476ft 143kts
29-Jun-18 16:48 34.602382 -118.194375 256 8064ft 136kts
29-Jun-18 16:49 34.590383 -118.248468 256 8065ft 179kts
29-Jun-18 16:50 34.577503 -118.306123 256 8064ft 180kts
29-Jun-18 16:51 34.564364 -118.364725 255 8063ft 180kts
29-Jun-18 16:52 34.551189 -118.423524 256 8064ft 181kts
29-Jun-18 16:53 34.538131 -118.481489 256 8064ft 180kts
29-Jun-18 16:54 34.493867 -118.506780 191 7508ft 195kts
29-Jun-18 16:56 34.441483 -118.521068 182 6703ft 195kts
29-Jun-18 16:57 34.399335 -118.490117 142 5939ft 183kts
29-Jun-18 16:58 34.354306 -118.466807 160 4841ft 185kts
29-Jun-18 16:59 34.311502 -118.440568 148 3839ft 176kts
29-Jun-18 17:00 34.272209 -118.410028 136 2622ft 164kts
29-Jun-18 17:01 34.243131 -118.377370 136 1938ft 133kts
29-Jun-18 17:02 34.217902 -118.362030 159 1058ft 81kts
29-Jun-18 17:02 34.203655 -118.358077 168 782ft 14kts
29-Jun-18 17:04 34.202879 -118.358783 251 782ft 0kts
29-Jun-18 17:05 34.201394 -118.358577 169 782ft 9kts
29-Jun-18 17:06 34.198873 -118.358554 273 782ft 12kts
29-Jun-18 17:06 34.198957 -118.362272 271 782ft 14kts
29-Jun-18 17:07 34.199889 -118.364568 50 782ft 0kts
29-Jun-18 17:08 34.200131 -118.363626 77 782ft 3kts
29-Jun-18 17:09 34.200402 -118.363694 180 782ft 0kts
29-Jun-18 17:10 34.200402 -118.363694 180 782ft 0kts
29-Jun-18 17:11 34.200402 -118.363694 180 782ft 0kts
29-Jun-18 17:12 34.200402 -118.363694 180 782ft 0kts
29-Jun-18 17:13 34.200402 -118.363694 180 782ft 0kts

Navigation Log

Ident Type
Flight plan parsing failed, navigation log unavailable